ADDS METAR Data

Data at: 0501 UTC 20 Apr 2018

METAR for:KPVC (Provincetown Muni, MA, US)
Text:KPVC 200456Z AUTO 32014G20KT 10SM OVC032 04/01 A2982 RMK AO2 RAE42 SLP097 P0001 T00440006 400610028
Temperature: 4.4°C ( 40°F)
Dewpoint: 0.6°C ( 33°F) [RH = 76%]
Pressure (altimeter):29.82 inches Hg (1009.9 mb) [Sea level pressure: 1009.7 mb]
Winds:from the NW (320 degrees) at 16 MPH (14 knots; 7.2 m/s) gusting to 23 MPH (20 knots; 10.3 m/s)
Visibility:10 or more sm (16+ km)
Ceiling:3200 feet AGL
Clouds: overcast cloud deck at 3200 feet AGL
QC Flag:automated observation with no human augmentation